This is the latest recevied weather packets stored in our database for station/object DW2488. If no packets are shown the sender has not sent any weather packets the latest 10 day(s).
| Time | Temp. | Humidity | Pressure | Rain* | Wind** | Luminosity | Snow |
|---|---|---|---|---|---|---|---|
| 1777780990 | 25.56° C | 54% | 1019.1 hPa | 0 mm | - | 264 W/m² | - |
| 1777780098 | 25.56° C | 53% | 1019.3 hPa | 0 mm | - | 355 W/m² | - |
| 1777779190 | 25.56° C | 54% | 1019.2 hPa | 0 mm | - | 517 W/m² | - |
| 1777778296 | 26.11° C | 54% | 1019.6 hPa | 0 mm | - | 341 W/m² | - |
| 1777777392 | 25.56° C | 57% | 1019.6 hPa | 0 mm | - | 510 W/m² | - |
| 1777776492 | 25° C | 57% | 1019.8 hPa | 0 mm | - | 480 W/m² | - |
| 1777775592 | 24.44° C | 60% | 1020.2 hPa | 0 mm | - | 584 W/m² | - |
| 1777774692 | 24.44° C | 60% | 1020.4 hPa | 0 mm | - | 383 W/m² | - |
| 1777773793 | 25° C | 58% | 1020.5 hPa | 0 mm | - | 343 W/m² | - |
| 1777772892 | 25° C | 60% | 1021.1 hPa | 0 mm | - | 584 W/m² | - |
| 1777771990 | 25° C | 63% | 1021.5 hPa | 0 mm | - | 582 W/m² | - |
| 1777771093 | 24.44° C | 63% | 1021.8 hPa | 0 mm | - | 619 W/m² | - |
| 1777770189 | 23.89° C | 66% | 1022.1 hPa | 0 mm | - | 645 W/m² | - |
| 1777769293 | 22.78° C | 66% | 1022.2 hPa | 0 mm | - | 594 W/m² | - |
| 1777768392 | 21.67° C | 71% | 1022.4 hPa | 0 mm | - | 559 W/m² | - |
| 1777767491 | 21.11° C | 72% | 1022.7 hPa | 0 mm | - | 415 W/m² | - |
| 1777766592 | 21.11° C | 75% | 1022.8 hPa | 0 mm | - | 401 W/m² | - |
| 1777765692 | 20.56° C | 76% | 1022.7 hPa | 0 mm | - | 243 W/m² | - |
| 1777764791 | 20° C | 80% | 1022.5 hPa | 0 mm | - | 281 W/m² | - |
| 1777763892 | 18.33° C | 85% | 1022.8 hPa | 0 mm | - | 355 W/m² | - |
| 1777762992 | 17.22° C | 90% | 1022.7 hPa | 0 mm | - | 345 W/m² | - |
| 1777762090 | 16.11° C | 92% | 1022.9 hPa | 0 mm | - | 183 W/m² | - |
| 1777761192 | 15.56° C | 92% | 1023 hPa | 0 mm | - | 111 W/m² | - |
| 1777760290 | 15° C | 93% | 1023 hPa | 0 mm | - | 132 W/m² | - |
| 1777759392 | 14.44° C | 92% | 1022.9 hPa | 0 mm | - | 114 W/m² | - |
* Rain latest hour (hover to see other rain measurements)
** Current wind speed in m/s (hover to see current wind gust speed)